Estación de San Nicolás

Ultimos registro cada 15 minutos 77
Estación Fecha / Hora Temperatura Humedad Lluvia Velocidad Dirección Radiación Presion
77 San Nicolás 03-05-2026 19:00 11,4 87 0 2,2 103 0 1016,6
76 San Nicolás 03-05-2026 18:45 11,4 86 0 1,3 99 0 1016,6
75 San Nicolás 03-05-2026 18:30 11,6 84 0 2,7 113 0 1016,5
74 San Nicolás 03-05-2026 18:15 11,8 82 0 0,4 133 0 1016,7
73 San Nicolás 03-05-2026 18:00 12,2 79 0 2,2 122 0 1016,5
72 San Nicolás 03-05-2026 17:45 12,9 77 0 1,8 128 0 1016,3
71 San Nicolás 03-05-2026 17:30 13,7 81 0 2,2 113 11 1016
70 San Nicolás 03-05-2026 17:15 14,4 86 0 1,3 101 12 1016,2
69 San Nicolás 03-05-2026 17:00 14,9 86 0 0 101 14 1016,2
68 San Nicolás 03-05-2026 16:45 15,2 87 0 0 101 21 1016,1
67 San Nicolás 03-05-2026 16:30 15,3 85 0 0 101 26 1015,8
66 San Nicolás 03-05-2026 16:15 15,4 83 0,3 0 101 25 1015,8
65 San Nicolás 03-05-2026 16:00 15,6 80 0 0 101 21 1015,4
64 San Nicolás 03-05-2026 15:45 15,7 79 0 0,9 101 35 1015,4
63 San Nicolás 03-05-2026 15:30 15,9 77 0 0,9 103 33 1015,4
62 San Nicolás 03-05-2026 15:15 16,3 75 0 1,3 90 44 1015,2
61 San Nicolás 03-05-2026 15:00 16,3 73 0 0,4 73 74 1015,6
60 San Nicolás 03-05-2026 14:45 16,3 72 0 0,9 74 98 1015,7
59 San Nicolás 03-05-2026 14:30 16,3 72 0 3,1 49 155 1015,7
58 San Nicolás 03-05-2026 14:15 16,1 73 0 1,8 67 176 1015,6
57 San Nicolás 03-05-2026 14:00 16 72 0 2,2 47 149 1015,8
56 San Nicolás 03-05-2026 13:45 15,7 71 0 2,2 56 156 1016,5
55 San Nicolás 03-05-2026 13:30 15,6 71 0 0 15 211 1016,5
54 San Nicolás 03-05-2026 13:15 15,3 72 0 1,8 64 195 1016,5
53 San Nicolás 03-05-2026 13:00 15,2 72 0 2,7 59 120 1016,3
52 San Nicolás 03-05-2026 12:45 15 72 0 1,3 74 192 1016,8
51 San Nicolás 03-05-2026 12:30 14,8 73 0 0,9 24 128 1017,3
50 San Nicolás 03-05-2026 12:15 14,9 72 0 2,7 17 295 1016,8
49 San Nicolás 03-05-2026 12:00 14,4 76 0 1,3 61 257 1016,8
48 San Nicolás 03-05-2026 11:45 13,8 78 0 0,4 40 295 1016,7
47 San Nicolás 03-05-2026 11:30 13,3 81 0 1,8 43 264 1016,8
46 San Nicolás 03-05-2026 11:15 12,8 83 0 2,2 61 438 1016,7
45 San Nicolás 03-05-2026 11:00 11,7 86 0 0,9 20 220 1016,8
44 San Nicolás 03-05-2026 10:45 11,2 85 0 0,9 22 232 1017
43 San Nicolás 03-05-2026 10:30 10,9 86 0 1,3 29 174 1016,9
42 San Nicolás 03-05-2026 10:15 10,6 88 0 1,3 32 176 1017
41 San Nicolás 03-05-2026 10:00 10,2 89 0 2,7 65 185 1016,7
40 San Nicolás 03-05-2026 09:45 9,4 92 0 1,3 60 169 1016,7
39 San Nicolás 03-05-2026 09:30 8,1 95 0 2,2 57 199 1016,1
38 San Nicolás 03-05-2026 09:15 6,9 96 0 2,2 68 156 1016,5
37 San Nicolás 03-05-2026 09:00 5,6 96 0 0 207 209 1016,4
36 San Nicolás 03-05-2026 08:45 4,8 96 0 0,9 207 79 1015,9
35 San Nicolás 03-05-2026 08:30 4,1 96 0 0 255 84 1016,1
34 San Nicolás 03-05-2026 08:15 3,5 96 0 0 255 46 1016,2
33 San Nicolás 03-05-2026 08:00 2,2 96 0 0 255 56 1016,1
32 San Nicolás 03-05-2026 07:45 1,6 95 0 0 255 26 1015,7
31 San Nicolás 03-05-2026 07:30 1,4 94 0 0 255 0 1015,5
30 San Nicolás 03-05-2026 07:15 1,4 94 0 0 255 0 1015,4
29 San Nicolás 03-05-2026 07:00 1,6 94 0 0 255 0 1015,6
28 San Nicolás 03-05-2026 06:45 1,6 94 0 0 255 0 1015,5
27 San Nicolás 03-05-2026 06:30 1,4 94 0 0 255 0 1015,4
26 San Nicolás 03-05-2026 06:15 1,7 94 0 0 255 0 1015,3
25 San Nicolás 03-05-2026 06:00 1,7 94 0 0 255 0 1015,3
24 San Nicolás 03-05-2026 05:45 1,7 94 0 0 255 0 1015,3
23 San Nicolás 03-05-2026 05:30 1,2 93 0 0 255 0 1015,1
22 San Nicolás 03-05-2026 05:15 1,5 93 0 0 255 0 1015,1
21 San Nicolás 03-05-2026 05:00 1,8 94 0 0 255 0 1015,3
20 San Nicolás 03-05-2026 04:45 1,6 94 0 0 255 0 1015,2
19 San Nicolás 03-05-2026 04:30 1,3 93 0 0 255 0 1015,2
18 San Nicolás 03-05-2026 04:15 1,9 93 0 0 255 0 1015,1
17 San Nicolás 03-05-2026 04:00 1,7 94 0 0 255 0 1015,1
16 San Nicolás 03-05-2026 03:45 0,9 92 0 0 255 0 1015,2
15 San Nicolás 03-05-2026 03:30 1,5 91 0 0 255 0 1015,5
14 San Nicolás 03-05-2026 03:15 2 93 0 0 255 0 1015,7
13 San Nicolás 03-05-2026 03:00 2 93 0 0 255 0 1015,5
12 San Nicolás 03-05-2026 02:45 2 93 0 0 255 0 1015,2
11 San Nicolás 03-05-2026 02:30 1,9 91 0 0 255 0 1015,3
10 San Nicolás 03-05-2026 02:15 2,6 92 0 0 255 0 1015,8
9 San Nicolás 03-05-2026 02:00 2,4 90 0 0 255 0 1015,6
8 San Nicolás 03-05-2026 01:45 3,3 92 0 0 255 0 1016,1
7 San Nicolás 03-05-2026 01:30 3,3 90 0 0 255 0 1015,9
6 San Nicolás 03-05-2026 01:15 4,4 91 0 0 255 0 1016
5 San Nicolás 03-05-2026 01:00 4,8 92 0 0 255 0 1015,8
4 San Nicolás 03-05-2026 00:45 4,8 92 0 0 255 0 1015,8
3 San Nicolás 03-05-2026 00:30 4,8 92 0 0 255 0 1015,7
2 San Nicolás 03-05-2026 00:15 4,6 93 0 0 255 0 1015,9
1 San Nicolás 03-05-2026 00:00 4,3 92 0 0 255 0 1016,4